Midland, MI

4:12 AM EDT on October 23, 2017 (GMT -0400)
Barstow

Weather History for KIKW - October, 2012

Change the Weather History Date:

Thursday, October 11, 2012

  Actual Average (KMBS) Record (KMBS)
Temperature  
Mean Temperature 42 °F -  
Max Temperature 59 °F 60 °F 80 °F (2011)
Min Temperature 26 °F 39 °F 28 °F (1996)
Degree Days  
Heating Degree Days 22    
Moisture  
Dew Point 33 °F    
Average Humidity 76    
Maximum Humidity 96    
Minimum Humidity 44    
Precipitation  
Precipitation 0.00 in - - ()
Sea Level Pressure  
Sea Level Pressure 30.06 in    
Wind  
Wind Speed 6 mph (WSW)    
Max Wind Speed 25 mph    
Max Gust Speed 45 mph    
Visibility 10 miles    
Events Rain    
Averages and records for this station are not official NWS values.
T = Trace of Precipitation, MM = Missing Value Source: NWS Daily Summary

Daily Weather History Graph

Daily Weather History Graph

Search for Another Location

Airport or City:

Trip Planner

Search our weather history database for the weather conditions in past years. The results will help you decide how hot, cold, wet, or windy it might be!

Date:

Astronomy

Oct. 11, 2012 Rise Set
Actual Time 7:46 AM EDT 6:59 PM EDT
Civil Twilight 7:18 AM EDT 7:28 PM EDT
Nautical Twilight 6:44 AM EDT 8:01 PM EDT
Astronomical Twilight 6:11 AM EDT 8:34 PM EDT
Moon 3:17 AM EDT (10/11) 4:41 PM EDT (10/11)
Length of Visible Light 12h 10m
Length of Day
11h 12m
Waning Crescent, 18% of the Moon is Illuminated
Oct 11
Waning Crescent
Oct 15
New
Oct 21
First Quarter
Oct 29
Full
Nov 6
Last Quarter

Hourly Weather History & Observations

Time (EDT) Temp. Windchill Dew Point Humidity Pressure Visibility Wind Dir Wind Speed Gust Speed Precip Events Conditions
12:14 AM 32.9 °F 29.8 °F 26.6 °F 78% 30.12 in 10.0 mi WSW 3.5 mph - N/A   Clear
12:34 AM 32.5 °F - 26.6 °F 79% 30.12 in 10.0 mi Calm Calm - N/A   Clear
12:53 AM 31.6 °F - 26.4 °F 81% 30.12 in 10.0 mi Calm Calm - N/A   Clear
1:13 AM 30.9 °F - 27.1 °F 86% 30.12 in 10.0 mi Calm Calm - N/A   Clear
1:34 AM 28.4 °F - 25.5 °F 89% 30.12 in 10.0 mi Calm Calm - N/A   Clear
1:53 AM 27.1 °F - 25.3 °F 93% 30.12 in 10.0 mi Calm Calm - N/A   Clear
2:13 AM 27.1 °F - 25.7 °F 94% 30.12 in 10.0 mi Calm Calm - N/A   Clear
2:34 AM 26.8 °F - 25.5 °F 95% 30.12 in 10.0 mi Calm Calm - N/A   Clear
2:53 AM 27.9 °F - 26.8 °F 96% 30.12 in 10.0 mi Calm Calm - N/A   Clear
3:14 AM 26.6 °F - 25.5 °F 96% 30.12 in 10.0 mi Calm Calm - N/A   Clear
3:53 AM 29.8 °F - 27.3 °F 90% 30.11 in 10.0 mi Calm Calm - N/A   Clear
4:14 AM 29.3 °F - 26.6 °F 90% 30.10 in 10.0 mi Calm Calm - N/A   Scattered Clouds
4:33 AM 30.2 °F - 26.6 °F 86% 30.09 in 10.0 mi Calm Calm - N/A   Scattered Clouds
4:54 AM 31.1 °F - 27.0 °F 85% 30.10 in 10.0 mi Calm Calm - N/A   Clear
5:14 AM 31.1 °F 27.7 °F 26.8 °F 84% 30.10 in 10.0 mi South 3.5 mph - N/A   Clear
5:33 AM 30.4 °F - 26.6 °F 86% 30.11 in 10.0 mi Calm Calm - N/A   Clear
5:54 AM 31.8 °F - 28.2 °F 87% 30.11 in 10.0 mi Calm Calm - N/A   Mostly Cloudy
6:13 AM 32.9 °F 29.8 °F 29.1 °F 86% 30.10 in 10.0 mi South 3.5 mph - N/A   Overcast
6:34 AM 34.0 °F 31.0 °F 29.3 °F 83% 30.11 in 10.0 mi South 3.5 mph - N/A   Overcast
6:54 AM 34.2 °F 31.2 °F 29.7 °F 84% 30.11 in 10.0 mi South 3.5 mph - N/A   Overcast
7:13 AM 35.2 °F 30.3 °F 30.0 °F 81% 30.09 in 10.0 mi South 5.8 mph - N/A   Overcast
7:34 AM 36.5 °F 30.3 °F 30.0 °F 77% 30.08 in 10.0 mi South 8.1 mph - N/A   Mostly Cloudy
7:54 AM 37.4 °F 31.4 °F 30.2 °F 75% 30.08 in 10.0 mi South 8.1 mph - N/A   Scattered Clouds
8:13 AM 37.0 °F 31.0 °F 30.4 °F 77% 30.07 in 10.0 mi South 8.1 mph - N/A   Scattered Clouds
8:34 AM 37.4 °F 32.1 °F 31.1 °F 78% 30.07 in 10.0 mi South 6.9 mph - N/A   Overcast
8:47 AM 37.6 °F 31.0 °F 31.1 °F 77% 30.07 in 10.0 mi SSW 9.2 mph - N/A   Overcast
9:14 AM 39.2 °F 33.0 °F 32.0 °F 75% 30.06 in 10.0 mi South 9.2 mph - N/A   Mostly Cloudy
9:34 AM 40.3 °F 34.4 °F 32.0 °F 72% 30.06 in 10.0 mi South 9.2 mph - N/A   Mostly Cloudy
9:54 AM 41.0 °F 35.2 °F 32.0 °F 70% 30.04 in 10.0 mi South 9.2 mph - N/A   Overcast
10:13 AM 42.6 °F 35.9 °F 32.0 °F 66% 30.04 in 10.0 mi SSW 12.7 mph 20.7 mph N/A   Overcast
10:34 AM 45.3 °F 38.7 °F 32.0 °F 60% 30.02 in 10.0 mi SSW 15.0 mph 20.7 mph N/A   Overcast
10:54 AM 45.7 °F 38.8 °F 32.0 °F 59% 30.01 in 10.0 mi SSW 16.1 mph 24.2 mph N/A   Mostly Cloudy
11:13 AM 49.1 °F - 32.7 °F 53% 29.99 in 10.0 mi SSW 19.6 mph 25.3 mph N/A   Scattered Clouds
11:34 AM 50.2 °F - 33.8 °F 53% 29.99 in 10.0 mi SW 17.3 mph 29.9 mph N/A   Scattered Clouds
11:53 AM 51.4 °F - 34.0 °F 51% 29.97 in 10.0 mi SSW 19.6 mph 27.6 mph N/A   Scattered Clouds
12:14 PM 53.4 °F - 34.9 °F 49% 29.96 in 10.0 mi SW 16.1 mph 32.2 mph N/A   Scattered Clouds
12:34 PM 56.1 °F - 35.8 °F 46% 29.95 in 10.0 mi SW 23.0 mph 29.9 mph N/A   Clear
12:53 PM 57.4 °F - 36.3 °F 45% 29.94 in 10.0 mi SW 19.6 mph 27.6 mph N/A   Clear
1:14 PM 59.2 °F - 37.2 °F 44% 29.94 in 10.0 mi SW 25.3 mph 33.4 mph N/A   Mostly Cloudy
1:54 PM 58.1 °F - 36.9 °F 45% 29.93 in 10.0 mi WSW 18.4 mph 44.9 mph N/A   Overcast
2:14 PM 57.2 °F - 36.0 °F 45% 29.93 in 10.0 mi West 25.3 mph 39.1 mph N/A Rain Light Rain
2:33 PM 56.1 °F - 37.6 °F 50% 29.94 in 10.0 mi West 12.7 mph 27.6 mph N/A Rain Light Rain
2:54 PM 55.0 °F - 39.4 °F 56% 29.94 in 10.0 mi West 12.7 mph 26.5 mph N/A   Light Drizzle
3:13 PM 51.8 °F - 42.6 °F 71% 29.96 in 10.0 mi West 15.0 mph 24.2 mph N/A Rain Light Rain
3:34 PM 50.7 °F - 42.8 °F 74% 29.97 in 10.0 mi West 11.5 mph 19.6 mph N/A Rain Rain
3:54 PM 49.5 °F - 43.2 °F 79% 29.98 in 10.0 mi West 13.8 mph 19.6 mph N/A Rain Light Rain
4:14 PM 48.4 °F - 42.8 °F 81% 29.99 in 10.0 mi West 11.5 mph 24.2 mph N/A Rain Light Rain
4:53 PM 47.1 °F - 42.8 °F 85% 30.00 in 10.0 mi West 9.2 mph 18.4 mph N/A Rain Light Rain
5:01 PM 47.1 °F - 42.8 °F 85% 30.00 in 10.0 mi West 12.7 mph 19.6 mph N/A Rain Light Rain
5:35 PM 46.4 °F 41.9 °F 42.8 °F 87% 30.02 in 10.0 mi WNW 9.2 mph - N/A   Overcast
5:38 PM 46.9 °F - 42.3 °F 84% 30.02 in 10.0 mi West 10.4 mph - N/A   Overcast
6:14 PM 47.3 °F - 42.1 °F 82% 30.04 in 10.0 mi NW 15.0 mph 21.9 mph N/A   Overcast
6:54 PM 44.6 °F 40.7 °F 39.6 °F 82% 30.05 in 10.0 mi NW 6.9 mph - N/A   Overcast
7:34 PM 44.2 °F 41.8 °F 38.8 °F 81% 30.07 in 10.0 mi West 4.6 mph - N/A   Overcast
7:54 PM 44.1 °F 40.1 °F 38.3 °F 80% 30.08 in 10.0 mi West 6.9 mph - N/A   Overcast
8:14 PM 43.9 °F 40.5 °F 38.3 °F 81% 30.09 in 10.0 mi WNW 5.8 mph - N/A   Overcast
8:34 PM 43.9 °F 40.5 °F 38.1 °F 80% 30.09 in 10.0 mi West 5.8 mph - N/A   Overcast
8:54 PM 43.7 °F 40.3 °F 37.9 °F 80% 30.10 in 10.0 mi WNW 5.8 mph - N/A   Overcast
9:14 PM 43.7 °F 42.1 °F 37.8 °F 80% 30.11 in 10.0 mi WNW 3.5 mph - N/A   Overcast
9:33 PM 43.7 °F 42.1 °F 37.6 °F 79% 30.12 in 10.0 mi West 3.5 mph - N/A   Overcast
9:54 PM 43.3 °F 41.7 °F 37.4 °F 80% 30.12 in 10.0 mi WNW 3.5 mph - N/A   Overcast
10:14 PM 42.8 °F 40.1 °F 37.0 °F 80% 30.13 in 10.0 mi NW 4.6 mph - N/A   Overcast
10:54 PM 42.8 °F 41.1 °F 35.6 °F 76% 30.14 in 10.0 mi WNW 3.5 mph - N/A   Overcast
11:34 PM 41.9 °F 39.0 °F 34.5 °F 75% 30.16 in 10.0 mi West 4.6 mph - N/A   Scattered Clouds
11:54 PM 41.7 °F 38.8 °F 34.2 °F 75% 30.16 in 10.0 mi West 4.6 mph - N/A   Clear